Time;durP1;ratioP1;P1;durP2;ratioP2;P2;SDS_P1;SDS_P2;PMS_P1;PMS_P2;Temp;Humidity;BMP_temperature;BMP_pressure;BME280_temperature;BME280_humidity;BME280_pressure;Samples;Min_cycle;Max_cycle;Signal;HPM_P1;HPM_P2
2023/05/11 00:02:20;;;;;;;15.43;6.45;;;;;;;5.29;100.00;99238.56;5161174;27;20467;-69
2023/05/11 00:04:46;;;;;;;17.02;6.70;;;;;;;5.28;100.00;99235.03;5161444;27;20062;-71
2023/05/11 00:07:12;;;;;;;10.95;6.10;;;;;;;5.22;100.00;99214.59;5161083;27;20139;-66
2023/05/11 00:09:40;;;;;;;20.52;6.65;;;;;;;5.26;100.00;99215.53;5161401;27;20158;-66
2023/05/11 00:12:06;;;;;;;11.15;6.28;;;;;;;5.15;100.00;99209.69;5161248;27;20057;-60
2023/05/11 00:14:32;;;;;;;14.27;6.53;;;;;;;5.22;100.00;99201.00;5161528;27;20082;-61
2023/05/11 00:16:58;;;;;;;25.90;6.40;;;;;;;5.26;100.00;99193.78;5164253;27;20075;-58
2023/05/11 00:19:24;;;;;;;12.18;6.80;;;;;;;5.22;100.00;99190.13;5166961;27;20058;-57
2023/05/11 00:21:50;;;;;;;11.73;5.95;;;;;;;5.19;100.00;99179.91;5167135;27;20050;-71
2023/05/11 00:24:16;;;;;;;17.10;6.25;;;;;;;5.16;100.00;99167.81;5160912;27;20057;-68
2023/05/11 00:26:42;;;;;;;10.88;5.97;;;;;;;5.14;100.00;99164.59;5160421;27;20046;-71
2023/05/11 00:29:08;;;;;;;11.05;6.18;;;;;;;5.14;100.00;99169.25;5160841;27;20050;-71
2023/05/11 00:31:34;;;;;;;10.95;6.30;;;;;;;5.03;100.00;99162.59;5160617;27;20079;-68
2023/05/11 00:34:00;;;;;;;14.57;6.75;;;;;;;5.04;100.00;99156.84;5160541;27;20062;-58
2023/05/11 00:36:26;;;;;;;10.77;6.47;;;;;;;4.82;100.00;99152.47;5160282;27;20320;-59
2023/05/11 00:38:53;;;;;;;10.43;6.22;;;;;;;4.86;100.00;99144.44;5160082;27;20142;-64
2023/05/11 00:41:20;;;;;;;17.85;6.78;;;;;;;4.90;100.00;99139.97;5160539;27;20047;-69
2023/05/11 00:43:46;;;;;;;16.02;6.97;;;;;;;4.81;100.00;99128.34;5160234;27;20099;-59
2023/05/11 00:46:12;;;;;;;10.73;6.10;;;;;;;4.85;100.00;99127.38;5160468;27;20047;-58
2023/05/11 00:48:38;;;;;;;13.68;6.60;;;;;;;4.85;100.00;99126.56;5160174;27;20082;-69
2023/05/11 00:51:05;;;;;;;11.35;6.68;;;;;;;4.73;100.00;99127.25;5160549;27;20364;-72
2023/05/11 00:53:31;;;;;;;21.65;7.55;;;;;;;4.75;100.00;99125.03;5159983;27;20066;-71
2023/05/11 00:55:58;;;;;;;12.32;7.18;;;;;;;4.74;100.00;99120.72;5159878;27;20369;-62
2023/05/11 00:58:24;;;;;;;14.45;6.35;;;;;;;4.69;100.00;99121.69;5160054;27;20153;-58
2023/05/11 01:00:50;;;;;;;12.23;7.00;;;;;;;4.67;100.00;99128.59;5160062;27;20047;-64
2023/05/11 01:03:16;;;;;;;15.45;6.70;;;;;;;4.64;100.00;99121.09;5160108;27;20050;-68
2023/05/11 01:05:47;;;;;;;13.95;6.68;;;;;;;4.60;100.00;99125.56;5159877;27;20106;-61
2023/05/11 01:08:18;;;;;;;15.15;7.57;;;;;;;4.61;100.00;99127.16;5159855;27;20046;-60
2023/05/11 01:10:48;;;;;;;12.48;7.28;;;;;;;4.50;100.00;99126.75;5159885;27;20068;-60
2023/05/11 01:13:25;;;;;;;18.30;6.95;;;;;;;4.51;100.00;99116.66;5160057;27;20043;-58
2023/05/11 01:15:52;;;;;;;18.88;7.85;;;;;;;4.57;100.00;99118.88;5159792;27;20057;-70
2023/05/11 01:18:24;;;;;;;16.38;7.70;;;;;;;4.51;100.00;99131.03;5159927;27;20115;-60
2023/05/11 01:20:54;;;;;;;12.70;7.25;;;;;;;4.51;100.00;99124.81;5159445;27;20089;-59
2023/05/11 01:23:46;;;;;;;17.05;7.60;;;;;;;4.46;100.00;99126.59;5160056;27;20051;-59
2023/05/11 01:26:35;;;;;;;16.25;7.78;;;;;;;4.39;100.00;99128.19;5159576;27;20133;-67
2023/05/11 01:29:40;;;;;;;13.00;7.75;;;;;;;4.18;100.00;99126.19;5118317;27;20050;-62
2023/05/11 01:32:14;;;;;;;19.08;8.10;;;;;;;4.32;100.00;99128.69;5159807;27;20047;-63
2023/05/11 01:34:43;;;;;;;16.90;7.70;;;;;;;4.30;100.00;99130.94;5159350;27;20068;-67
2023/05/11 01:37:13;;;;;;;15.40;7.93;;;;;;;4.29;100.00;99129.34;5159422;27;20118;-69
2023/05/11 01:39:45;;;;;;;14.50;7.80;;;;;;;4.18;100.00;99125.38;5159287;27;20149;-58
2023/05/11 01:42:14;;;;;;;13.02;8.00;;;;;;;4.07;100.00;99135.78;5159216;27;20150;-65
2023/05/11 01:44:46;;;;;;;13.45;8.30;;;;;;;4.14;100.00;99138.00;5159551;27;20047;-62
2023/05/11 01:47:13;;;;;;;13.90;6.88;;;;;;;4.12;100.00;99141.03;5159193;27;20050;-69
2023/05/11 01:49:41;;;;;;;16.63;8.40;;;;;;;4.06;100.00;99139.59;5159557;27;20114;-71
2023/05/11 01:52:08;;;;;;;18.10;7.25;;;;;;;4.00;100.00;99138.19;5158988;27;20050;-62
2023/05/11 01:54:36;;;;;;;16.92;8.23;;;;;;;4.01;100.00;99150.63;5159450;27;20062;-57
2023/05/11 01:57:03;;;;;;;17.13;7.75;;;;;;;3.84;100.00;99147.94;5158966;27;20055;-58
2023/05/11 01:59:31;;;;;;;16.95;8.38;;;;;;;3.98;100.00;99145.84;5158773;27;20153;-70
2023/05/11 02:01:58;;;;;;;17.55;8.07;;;;;;;3.98;100.00;99148.56;5159025;27;20086;-62
2023/05/11 02:04:27;;;;;;;19.38;8.07;;;;;;;3.98;100.00;99154.00;5158950;27;20149;-59
2023/05/11 02:06:56;;;;;;;15.40;7.57;;;;;;;4.01;100.00;99154.16;5159120;27;20074;-63
2023/05/11 02:09:23;;;;;;;21.70;8.65;;;;;;;4.02;100.00;99163.06;5158745;27;20061;-64
2023/05/11 02:11:52;;;;;;;16.27;8.38;;;;;;;3.99;100.00;99163.72;5158978;27;20145;-67
2023/05/11 02:14:20;;;;;;;19.85;8.95;;;;;;;4.01;100.00;99165.00;5158849;27;20332;-59
2023/05/11 02:16:47;;;;;;;18.48;7.85;;;;;;;4.01;100.00;99170.41;5159037;27;20053;-64
2023/05/11 02:19:14;;;;;;;20.98;8.32;;;;;;;4.02;100.00;99165.78;5158493;27;20050;-72
2023/05/11 02:21:43;;;;;;;16.35;7.97;;;;;;;4.01;100.00;99172.34;5159036;27;20111;-70
2023/05/11 02:24:09;;;;;;;14.10;8.20;;;;;;;3.96;100.00;99172.50;5158850;27;20059;-59
2023/05/11 02:26:35;;;;;;;22.13;8.57;;;;;;;4.01;100.00;99175.06;5158669;27;20150;-59
2023/05/11 02:29:01;;;;;;;12.77;7.80;;;;;;;3.98;100.00;99179.19;5158783;27;20074;-59
2023/05/11 02:31:28;;;;;;;12.93;7.78;;;;;;;4.07;100.00;99172.97;5158578;27;20089;-65
2023/05/11 02:33:59;;;;;;;21.40;8.20;;;;;;;4.07;100.00;99176.50;5159001;27;20164;-59
2023/05/11 02:36:29;;;;;;;14.93;8.13;;;;;;;4.07;100.00;99173.78;5158310;27;20425;-69
2023/05/11 02:39:03;;;;;;;19.58;7.53;;;;;;;3.99;100.00;99169.13;5158825;27;20065;-64
2023/05/11 02:41:30;;;;;;;10.45;7.15;;;;;;;4.11;100.00;99163.88;5158267;27;20053;-69
2023/05/11 02:44:00;;;;;;;20.23;7.72;;;;;;;4.09;100.00;99173.44;5158715;27;20055;-70
2023/05/11 02:46:31;;;;;;;16.45;7.82;;;;;;;4.44;100.00;99171.47;5158108;27;20412;-69
2023/05/11 02:49:00;;;;;;;15.60;7.43;;;;;;;4.94;100.00;99155.28;5158345;27;20137;-68
2023/05/11 02:51:30;;;;;;;11.75;6.97;;;;;;;5.20;100.00;99138.06;5158440;27;20126;-64
2023/05/11 02:53:58;;;;;;;12.95;7.13;;;;;;;5.70;100.00;99141.81;5158317;27;20141;-60
2023/05/11 02:56:25;;;;;;;14.82;7.20;;;;;;;6.00;100.00;99184.19;5158487;27;20137;-59
2023/05/11 02:58:51;;;;;;;11.45;6.93;;;;;;;6.19;100.00;99240.84;5158120;27;20050;-62
2023/05/11 03:01:17;;;;;;;17.05;6.63;;;;;;;6.69;100.00;99278.03;5158520;27;20058;-71
2023/05/11 03:03:43;;;;;;;14.85;7.25;;;;;;;6.94;100.00;99335.34;5158127;27;20060;-63
2023/05/11 03:06:08;;;;;;;11.60;5.97;;;;;;;7.18;100.00;99376.28;5158512;27;20078;-57
2023/05/11 03:08:35;;;;;;;10.15;6.25;;;;;;;7.53;100.00;99420.34;5158044;27;20422;-61
2023/05/11 03:11:03;;;;;;;14.73;6.82;;;;;;;7.62;100.00;99472.09;5157995;27;20051;-69
2023/05/11 03:13:30;;;;;;;14.43;6.18;;;;;;;8.09;100.00;99515.38;5157956;27;20047;-61
2023/05/11 03:15:57;;;;;;;15.52;6.55;;;;;;;8.29;100.00;99537.50;5158653;27;20150;-68
2023/05/11 03:18:24;;;;;;;13.13;7.40;;;;;;;8.33;100.00;99577.47;5158314;27;20069;-63
2023/05/11 03:20:51;;;;;;;12.23;7.05;;;;;;;8.91;100.00;99586.38;5159231;27;20058;-68
2023/05/11 03:23:18;;;;;;;11.57;6.00;;;;;;;9.01;100.00;99619.88;5160417;27;20062;-58
2023/05/11 03:25:44;;;;;;;11.27;5.57;;;;;;;9.25;100.00;99635.44;5160708;27;20395;-70
2023/05/11 03:28:13;;;;;;;18.75;6.70;;;;;;;9.38;100.00;99639.75;5160702;27;20054;-61
2023/05/11 03:30:42;;;;;;;11.65;6.90;;;;;;;9.80;100.00;99656.66;5158332;27;20137;-59
2023/05/11 03:33:08;;;;;;;11.75;6.97;;;;;;;10.03;100.00;99678.81;5158665;27;20057;-61
2023/05/11 03:35:36;;;;;;;10.10;6.10;;;;;;;10.16;100.00;99693.25;5157775;27;20436;-67
2023/05/11 03:38:04;;;;;;;11.15;7.00;;;;;;;10.20;100.00;99691.44;5158676;27;20051;-70
2023/05/11 03:40:32;;;;;;;12.93;6.70;;;;;;;10.70;100.00;99700.22;5157891;27;20047;-70
2023/05/11 03:43:01;;;;;;;12.07;7.25;;;;;;;10.60;100.00;99709.75;5158356;27;20320;-64
2023/05/11 03:45:28;;;;;;;12.45;6.93;;;;;;;10.97;100.00;99715.00;5160331;27;20046;-55
2023/05/11 03:47:56;;;;;;;18.20;7.03;;;;;;;11.40;100.00;99727.03;5167106;27;20066;-55
2023/05/11 03:50:22;;;;;;;13.27;6.45;;;;;;;11.65;100.00;99742.09;5162397;27;20057;-72
2023/05/11 03:52:48;;;;;;;14.38;6.47;;;;;;;11.75;100.00;99752.53;5159596;27;20047;-65
2023/05/11 03:55:15;;;;;;;11.60;6.85;;;;;;;12.00;100.00;99763.31;5161339;27;20046;-60
2023/05/11 03:57:41;;;;;;;14.60;7.30;;;;;;;12.31;100.00;99762.41;5160924;27;20058;-72
2023/05/11 04:00:10;;;;;;;16.30;6.88;;;;;;;12.40;100.00;99768.47;5161273;27;20429;-62
2023/05/11 04:02:36;;;;;;;15.18;6.50;;;;;;;12.85;100.00;99786.22;5160975;27;20146;-71
2023/05/11 04:05:06;;;;;;;14.60;6.88;;;;;;;13.10;100.00;99788.66;5161343;27;20082;-66
2023/05/11 04:07:32;;;;;;;11.38;6.57;;;;;;;13.20;100.00;99801.81;5161009;27;20106;-69
2023/05/11 04:09:58;;;;;;;13.88;6.90;;;;;;;13.50;100.00;99798.41;5160838;27;20058;-72
2023/05/11 04:12:24;;;;;;;11.52;6.38;;;;;;;13.75;99.71;99802.31;5161098;27;20061;-62
2023/05/11 04:14:50;;;;;;;14.68;7.10;;;;;;;14.07;96.53;99811.06;5160962;27;20047;-60
2023/05/11 04:17:16;;;;;;;10.10;6.47;;;;;;;14.26;95.02;99817.59;5161142;27;20069;-61
2023/05/11 04:19:42;;;;;;;11.93;6.60;;;;;;;14.55;92.04;99819.59;5160710;27;20093;-59
2023/05/11 04:22:10;;;;;;;16.35;6.95;;;;;;;14.80;90.95;99817.13;5160903;27;20133;-61
2023/05/11 04:24:36;;;;;;;13.35;6.55;;;;;;;14.91;89.04;99822.78;5160538;27;20042;-61
2023/05/11 04:27:02;;;;;;;13.95;6.85;;;;;;;15.30;87.81;99825.13;5160808;27;20417;-61
2023/05/11 04:29:29;;;;;;;16.30;6.78;;;;;;;15.18;88.36;99828.16;5160660;27;20448;-66
2023/05/11 04:31:55;;;;;;;16.33;6.78;;;;;;;15.49;87.56;99824.09;5161456;27;20464;-59
2023/05/11 04:34:21;;;;;;;26.83;6.93;;;;;;;15.71;85.03;99833.41;5161107;27;20043;-60
2023/05/11 04:36:48;;;;;;;21.40;7.82;;;;;;;16.15;83.21;99832.50;5160478;27;20411;-66
2023/05/11 04:39:14;;;;;;;15.13;6.93;;;;;;;16.12;83.59;99836.84;5160465;27;20137;-68
2023/05/11 04:41:40;;;;;;;21.10;6.90;;;;;;;16.62;82.69;99833.53;5160422;27;20059;-62
2023/05/11 04:44:06;;;;;;;22.70;6.85;;;;;;;17.01;80.50;99844.78;5160674;27;20415;-58
2023/05/11 04:46:32;;;;;;;16.33;9.13;;;;;;;17.30;78.61;99850.38;5160306;27;20134;-57
2023/05/11 04:48:58;;;;;;;14.75;7.55;;;;;;;17.27;78.36;99837.31;5160284;27;20197;-57
2023/05/11 04:51:24;;;;;;;16.02;7.45;;;;;;;17.53;76.89;99850.03;5159957;27;20081;-59
2023/05/11 04:53:50;;;;;;;14.25;6.93;;;;;;;17.88;74.84;99847.25;5160188;27;20050;-58
2023/05/11 04:56:17;;;;;;;20.20;7.10;;;;;;;18.18;71.80;99859.09;5159736;27;20047;-56
2023/05/11 04:58:43;;;;;;;13.45;7.50;;;;;;;18.58;72.43;99863.34;5160162;27;20046;-63
2023/05/11 05:01:08;;;;;;;24.35;7.45;;;;;;;18.91;68.63;99869.59;5159687;27;20146;-60
2023/05/11 05:03:34;;;;;;;18.75;5.85;;;;;;;19.00;64.51;99881.06;5159036;27;20099;-58
2023/05/11 05:06:00;;;;;;;20.02;5.85;;;;;;;19.44;64.31;99871.28;5159266;27;20408;-56
2023/05/11 05:08:26;;;;;;;22.00;7.90;;;;;;;19.90;61.48;99884.06;5159639;27;20972;-56
2023/05/11 05:10:53;;;;;;;14.00;4.75;;;;;;;20.03;55.58;99884.38;5159729;27;20137;-57
2023/05/11 05:13:18;;;;;;;6.22;3.65;;;;;;;20.31;51.55;99881.28;5159780;27;20129;-61
2023/05/11 05:15:44;;;;;;;12.50;4.72;;;;;;;20.21;52.08;99884.97;5159764;27;20411;-57
2023/05/11 05:18:10;;;;;;;9.55;3.60;;;;;;;20.57;49.57;99884.63;5159329;27;20057;-57
2023/05/11 05:20:36;;;;;;;9.82;3.70;;;;;;;21.14;49.08;99884.69;5159513;27;20042;-59
2023/05/11 05:23:02;;;;;;;6.13;3.00;;;;;;;21.31;48.11;99884.88;5159346;27;20087;-64
2023/05/11 05:25:28;;;;;;;8.27;2.90;;;;;;;21.66;47.80;99885.56;5159221;27;20074;-67
2023/05/11 05:27:55;;;;;;;5.13;3.20;;;;;;;21.63;47.74;99884.44;5159103;27;20089;-60
2023/05/11 05:30:21;;;;;;;7.00;3.90;;;;;;;21.74;47.39;99878.66;5159511;27;20321;-55
2023/05/11 05:32:47;;;;;;;5.10;3.70;;;;;;;21.93;46.74;99889.13;5159218;27;20061;-63
2023/05/11 05:35:13;;;;;;;8.75;3.63;;;;;;;21.96;46.55;99888.28;5159401;27;20042;-62
2023/05/11 05:37:39;;;;;;;7.90;3.03;;;;;;;22.32;46.34;99882.06;5159275;27;20095;-59
2023/05/11 05:40:06;;;;;;;6.28;2.95;;;;;;;22.27;45.94;99882.56;5159104;27;20058;-58
2023/05/11 05:42:32;;;;;;;5.32;3.13;;;;;;;22.30;45.60;99882.50;5158758;27;20043;-63
2023/05/11 05:44:59;;;;;;;9.00;3.80;;;;;;;22.55;45.28;99882.00;5158716;27;20119;-59
2023/05/11 05:47:25;;;;;;;14.93;3.28;;;;;;;22.66;45.95;99878.22;5159161;27;20051;-63
2023/05/11 05:49:51;;;;;;;11.32;3.33;;;;;;;23.00;44.88;99887.13;5158715;27;20089;-60
2023/05/11 05:52:17;;;;;;;8.98;2.95;;;;;;;22.95;43.97;99887.63;5158790;27;20297;-58
2023/05/11 05:54:43;;;;;;;10.05;3.00;;;;;;;22.70;43.23;99882.53;5158664;27;20046;-63
2023/05/11 05:57:09;;;;;;;6.35;3.00;;;;;;;23.15;42.70;99889.59;5158936;27;20104;-59
2023/05/11 05:59:35;;;;;;;5.53;3.20;;;;;;;23.41;42.87;99885.03;5158512;27;20054;-56
2023/05/11 06:02:02;;;;;;;7.50;3.45;;;;;;;24.04;43.06;99881.91;5158986;27;20415;-61
2023/05/11 06:04:28;;;;;;;11.88;3.42;;;;;;;24.13;42.55;99886.91;5158509;27;20051;-62
2023/05/11 06:06:56;;;;;;;7.47;3.20;;;;;;;23.91;41.74;99890.22;5158829;27;20061;-64
2023/05/11 06:09:22;;;;;;;6.32;3.15;;;;;;;24.74;40.96;99890.88;5158886;27;20061;-58
2023/05/11 06:11:48;;;;;;;9.65;3.42;;;;;;;24.37;41.54;99888.25;5158550;27;20046;-55
2023/05/11 06:14:14;;;;;;;9.57;3.13;;;;;;;24.04;40.51;99890.31;5158755;27;20078;-58
2023/05/11 06:16:40;;;;;;;5.80;3.08;;;;;;;24.65;41.03;99891.50;5158086;27;20332;-63
2023/05/11 06:19:07;;;;;;;7.07;3.30;;;;;;;24.69;41.06;99883.00;5158718;27;20328;-64
2023/05/11 06:21:33;;;;;;;10.20;3.40;;;;;;;24.75;40.79;99884.81;5158309;27;20138;-63
2023/05/11 06:23:59;;;;;;;7.03;3.13;;;;;;;24.67;41.33;99885.47;5158526;27;20089;-65
2023/05/11 06:26:27;;;;;;;7.28;3.40;;;;;;;24.84;40.47;99887.75;5158213;27;20054;-64
2023/05/11 06:28:53;;;;;;;9.00;3.03;;;;;;;24.72;41.51;99885.69;5158651;27;20050;-59
2023/05/11 06:31:19;;;;;;;5.85;2.83;;;;;;;24.91;39.88;99880.38;5158235;27;20077;-56
2023/05/11 06:33:45;;;;;;;3.63;2.92;;;;;;;24.54;39.03;99889.00;5158462;27;20346;-60
2023/05/11 06:36:11;;;;;;;9.20;3.30;;;;;;;24.58;39.34;99892.50;5158356;27;20070;-62
2023/05/11 06:38:37;;;;;;;6.53;3.10;;;;;;;24.54;39.08;99885.44;5158173;27;20055;-58
2023/05/11 06:41:03;;;;;;;3.63;2.50;;;;;;;25.03;39.81;99885.22;5158153;27;20312;-58
2023/05/11 06:43:29;;;;;;;7.97;3.03;;;;;;;24.52;40.13;99885.84;5157736;27;20050;-61
2023/05/11 06:45:55;;;;;;;4.57;2.60;;;;;;;24.78;39.66;99888.75;5157899;27;20138;-60
2023/05/11 06:48:23;;;;;;;5.55;2.50;;;;;;;24.99;39.41;99887.31;5157515;27;20357;-59
2023/05/11 06:50:49;;;;;;;8.05;3.90;;;;;;;24.68;38.08;99901.84;5158271;27;20328;-62
2023/05/11 06:53:16;;;;;;;7.53;3.28;;;;;;;24.97;38.71;99899.00;5157782;27;20134;-58
2023/05/11 06:55:43;;;;;;;5.68;2.95;;;;;;;25.42;38.50;99889.63;5158140;27;20408;-61
2023/05/11 06:58:09;;;;;;;9.18;3.20;;;;;;;25.67;38.31;99904.91;5157540;27;20043;-61
2023/05/11 07:00:34;;;;;;;7.50;3.10;;;;;;;24.98;39.71;99900.56;5158137;27;20088;-62
2023/05/11 07:03:00;;;;;;;4.38;2.85;;;;;;;24.24;38.93;99904.22;5158137;27;20137;-60
2023/05/11 07:05:26;;;;;;;5.57;2.53;;;;;;;24.43;38.02;99905.34;5157905;27;20057;-59
2023/05/11 07:07:52;;;;;;;5.43;3.55;;;;;;;23.93;39.27;99904.59;5157777;27;20050;-59
2023/05/11 07:10:19;;;;;;;5.00;2.60;;;;;;;25.41;38.10;99901.34;5157443;27;20202;-56
2023/05/11 07:12:45;;;;;;;4.72;2.47;;;;;;;24.30;37.32;99910.84;5157836;27;20142;-58
2023/05/11 07:15:11;;;;;;;4.78;2.70;;;;;;;25.33;36.94;99907.16;5157458;27;20105;-55
2023/05/11 07:17:37;;;;;;;5.72;2.40;;;;;;;25.79;36.80;99899.31;5157493;27;20062;-56
2023/05/11 07:20:03;;;;;;;2.58;2.28;;;;;;;25.52;36.79;99904.56;5157259;27;20054;-62
2023/05/11 07:22:29;;;;;;;4.78;3.00;;;;;;;23.69;38.16;99903.16;5157664;27;20047;-55
2023/05/11 07:24:55;;;;;;;4.68;2.92;;;;;;;23.04;38.01;99903.81;5157050;27;20065;-61
2023/05/11 07:27:22;;;;;;;3.70;2.75;;;;;;;23.76;38.18;99905.81;5158228;27;20090;-59
2023/05/11 07:29:48;;;;;;;4.38;2.70;;;;;;;23.18;38.29;99894.34;5160730;27;20089;-60
2023/05/11 07:32:13;;;;;;;5.32;2.83;;;;;;;24.61;38.15;99902.81;5160927;27;20050;-60
2023/05/11 07:34:40;;;;;;;3.58;2.60;;;;;;;24.82;38.60;99901.41;5160692;27;20141;-60
2023/05/11 07:37:07;;;;;;;5.57;3.00;;;;;;;25.07;38.37;99897.91;5160703;27;20404;-62
2023/05/11 07:39:33;;;;;;;4.63;2.97;;;;;;;25.50;37.32;99890.22;5160823;27;20058;-61
2023/05/11 07:41:58;;;;;;;5.05;2.53;;;;;;;25.49;37.74;99883.00;5160735;27;20118;-60
2023/05/11 07:44:25;;;;;;;6.65;3.53;;;;;;;25.18;39.05;99886.38;5160994;27;20057;-58
2023/05/11 07:46:51;;;;;;;14.40;3.20;;;;;;;23.55;39.19;99883.91;5160731;27;20066;-60
2023/05/11 07:49:17;;;;;;;12.77;2.70;;;;;;;23.15;39.90;99882.00;5160971;27;20061;-59
2023/05/11 07:51:43;;;;;;;13.48;3.42;;;;;;;23.15;41.57;99884.00;5160584;27;20102;-57
2023/05/11 07:54:09;;;;;;;9.85;3.17;;;;;;;22.77;41.21;99885.16;5160755;27;20434;-55
2023/05/11 07:56:35;;;;;;;13.00;4.10;;;;;;;23.10;43.46;99881.75;5160482;27;20051;-58
2023/05/11 07:59:01;;;;;;;11.80;2.67;;;;;;;23.56;40.63;99886.28;5160715;27;20300;-60
2023/05/11 08:01:27;;;;;;;2.83;1.98;;;;;;;22.06;40.50;99880.94;5160333;27;20309;-60
2023/05/11 08:03:53;;;;;;;6.38;2.53;;;;;;;22.26;40.35;99881.78;5160632;27;20137;-60
2023/05/11 08:06:19;;;;;;;3.78;2.65;;;;;;;20.89;41.13;99881.44;5160434;27;20357;-60
2023/05/11 08:08:45;;;;;;;3.92;2.90;;;;;;;20.54;40.88;99888.25;5160111;27;20145;-59
2023/05/11 08:11:11;;;;;;;5.65;2.53;;;;;;;21.05;40.41;99887.19;5160501;27;20051;-60
2023/05/11 08:13:37;;;;;;;7.72;2.35;;;;;;;20.22;40.65;99887.31;5160149;27;20050;-60
2023/05/11 08:16:03;;;;;;;8.30;2.38;;;;;;;19.97;42.69;99886.78;5160109;27;20133;-58
2023/05/11 08:18:30;;;;;;;9.25;2.90;;;;;;;19.74;45.39;99884.59;5159912;27;20057;-56
2023/05/11 08:20:56;;;;;;;8.32;3.45;;;;;;;21.46;43.37;99883.50;5160220;27;20126;-59
2023/05/11 08:23:22;;;;;;;14.05;4.90;;;;;;;22.73;43.91;99875.28;5159956;27;20398;-64
2023/05/11 08:25:50;;;;;;;13.25;3.40;;;;;;;23.80;42.16;99875.72;5160410;27;20058;-62
2023/05/11 08:28:16;;;;;;;10.45;3.55;;;;;;;24.22;42.46;99875.06;5159976;27;20046;-61
2023/05/11 08:30:42;;;;;;;11.07;5.18;;;;;;;24.35;41.74;99870.28;5160392;27;20133;-63
2023/05/11 08:33:08;;;;;;;10.95;5.28;;;;;;;23.44;42.75;99872.97;5160197;27;20057;-63
2023/05/11 08:35:35;;;;;;;8.82;3.08;;;;;;;22.27;41.50;99865.81;5160455;27;20072;-59
2023/05/11 08:38:01;;;;;;;6.28;3.45;;;;;;;21.17;42.84;99860.00;5160080;27;20061;-57
2023/05/11 08:40:27;;;;;;;4.50;2.58;;;;;;;20.85;43.39;99859.19;5159918;27;20050;-55
2023/05/11 08:42:55;;;;;;;8.18;4.95;;;;;;;22.35;43.51;99858.84;5160221;27;20057;-61
2023/05/11 08:45:22;;;;;;;8.85;3.42;;;;;;;22.73;42.69;99864.91;5159486;27;20061;-62
2023/05/11 08:47:48;;;;;;;13.60;3.83;;;;;;;22.79;43.43;99862.38;5160078;27;20080;-54
2023/05/11 08:50:14;;;;;;;32.30;6.43;;;;;;;22.53;43.06;99861.31;5159645;27;20105;-58
2023/05/11 08:52:41;;;;;;;4.13;2.65;;;;;;;22.39;41.63;99861.59;5160015;27;20129;-61
2023/05/11 08:55:09;;;;;;;3.45;2.35;;;;;;;23.21;41.15;99857.88;5159641;27;20129;-53
2023/05/11 08:57:35;;;;;;;6.03;3.20;;;;;;;23.91;40.65;99867.03;5160122;27;20471;-58
2023/05/11 09:00:02;;;;;;;8.70;3.40;;;;;;;23.57;40.10;99857.06;5159403;27;20050;-62
2023/05/11 09:02:28;;;;;;;7.32;3.00;;;;;;;22.82;39.94;99849.53;5159807;27;20332;-56
2023/05/11 09:04:55;;;;;;;4.88;3.22;;;;;;;23.28;40.29;99850.56;5159776;27;20051;-58
2023/05/11 09:07:22;;;;;;;11.20;3.00;;;;;;;23.77;40.89;99845.81;5159641;27;20450;-61
2023/05/11 09:09:49;;;;;;;5.75;3.08;;;;;;;23.08;40.09;99851.38;5159737;27;20353;-61
2023/05/11 09:12:15;;;;;;;8.20;3.10;;;;;;;22.07;40.91;99846.97;5159433;27;20424;-60
2023/05/11 09:14:41;;;;;;;3.80;3.15;;;;;;;22.56;40.83;99849.28;5159835;27;20266;-62
2023/05/11 09:17:07;;;;;;;9.95;3.20;;;;;;;21.84;41.94;99844.22;5159272;27;20543;-59
2023/05/11 09:19:33;;;;;;;3.70;2.70;;;;;;;21.51;41.19;99849.53;5159579;27;20051;-62
2023/05/11 09:21:59;;;;;;;4.20;2.42;;;;;;;21.11;41.15;99845.72;5159221;27;20062;-63
2023/05/11 09:24:26;;;;;;;7.88;2.90;;;;;;;20.81;42.89;99841.75;5159609;27;20369;-56
2023/05/11 09:27:05;;;;;;;7.03;3.67;;;;;;;20.87;42.21;99842.06;5159246;27;20046;-64
2023/05/11 09:29:31;;;;;;;10.45;2.53;;;;;;;20.88;42.27;99844.44;5159255;27;20061;-61
2023/05/11 09:31:57;;;;;;;8.25;1.95;;;;;;;21.05;43.29;99836.25;5159093;27;20137;-64
2023/05/11 09:34:23;;;;;;;2.28;2.00;;;;;;;21.49;42.33;99837.19;5159181;27;20077;-64
2023/05/11 09:36:50;;;;;;;3.28;2.50;;;;;;;21.95;42.40;99833.63;5159399;27;20141;-61
2023/05/11 09:39:18;;;;;;;5.60;3.33;;;;;;;21.75;41.92;99827.22;5159183;27;20106;-58
2023/05/11 09:41:44;;;;;;;4.22;2.92;;;;;;;22.38;41.77;99837.66;5159350;27;20400;-64
2023/05/11 09:44:12;;;;;;;4.18;2.63;;;;;;;22.88;41.58;99843.00;5158773;27;20050;-62
2023/05/11 09:46:39;;;;;;;4.93;2.95;;;;;;;24.02;39.68;99845.16;5159013;27;20055;-62
2023/05/11 09:49:05;;;;;;;6.22;2.70;;;;;;;24.66;39.37;99834.22;5158712;27;20173;-62
2023/05/11 09:51:34;;;;;;;7.50;3.13;;;;;;;24.54;39.19;99832.94;5158451;27;20046;-61
2023/05/11 09:54:01;;;;;;;6.05;3.00;;;;;;;23.65;39.14;99838.06;5158546;27;20065;-64
2023/05/11 09:56:45;;;;;;;4.22;3.08;;;;;;;22.27;40.68;99824.69;5158479;27;20431;-62
2023/05/11 09:59:12;;;;;;;3.97;2.33;;;;;;;21.80;41.44;99826.75;5158562;27;20073;-65
2023/05/11 10:01:39;;;;;;;6.85;2.90;;;;;;;21.29;41.50;99821.16;5158577;27;20247;-62
2023/05/11 10:04:07;;;;;;;6.32;2.72;;;;;;;21.20;42.26;99814.53;5158787;27;20073;-63
2023/05/11 10:06:47;;;;;;;8.38;3.45;;;;;;;20.18;43.06;99822.56;5158438;27;20103;-57
2023/05/11 10:09:15;;;;;;;5.20;3.00;;;;;;;20.90;42.79;99818.94;5158883;27;20137;-57
2023/05/11 10:11:44;;;;;;;4.18;2.58;;;;;;;21.11;41.84;99813.03;5158241;27;20057;-58
2023/05/11 10:14:12;;;;;;;4.60;2.35;;;;;;;20.43;42.35;99802.00;5159095;27;20047;-59
2023/05/11 10:16:40;;;;;;;4.88;2.42;;;;;;;20.85;41.89;99808.25;5158485;27;20061;-58
2023/05/11 10:19:06;;;;;;;6.03;2.78;;;;;;;20.21;43.58;99801.44;5158202;27;20046;-58
2023/05/11 10:21:33;;;;;;;8.93;2.50;;;;;;;20.21;43.24;99799.47;5158590;27;20047;-54
2023/05/11 10:23:59;;;;;;;2.95;2.38;;;;;;;;;;5158269;27;20549;-55
2023/05/11 10:26:26;;;;;;;5.13;2.20;;;;;;;20.10;42.79;99800.78;5158428;27;20124;-53
2023/05/11 10:28:52;;;;;;;8.05;2.50;;;;;;;20.30;44.09;99795.41;5158434;27;20141;-55
2023/05/11 10:31:22;;;;;;;3.67;2.47;;;;;;;20.24;43.22;99802.63;5158291;27;20050;-54
2023/05/11 10:33:50;;;;;;;8.93;2.83;;;;;;;19.98;43.02;99802.09;5157971;27;20042;-55
2023/05/11 10:36:17;;;;;;;5.50;2.20;;;;;;;19.74;43.20;99803.94;5158369;27;20107;-58
2023/05/11 10:38:42;;;;;;;2.70;2.20;;;;;;;19.96;43.76;99794.16;5157792;27;20064;-60
2023/05/11 10:41:24;;;;;;;5.07;2.67;;;;;;;19.89;44.33;99799.00;5158523;27;20058;-57
2023/05/11 10:44:10;;;;;;;3.63;2.28;;;;;;;20.38;43.35;99799.66;5158222;27;20050;-63
2023/05/11 10:46:51;;;;;;;7.15;2.03;;;;;;;20.57;44.56;99792.72;5158479;27;20098;-60
2023/05/11 10:49:35;;;;;;;7.40;2.90;;;;;;;21.01;43.73;99790.91;5158391;27;20352;-57
2023/05/11 10:52:18;;;;;;;9.38;2.42;;;;;;;21.59;44.10;99791.59;5157957;27;20123;-57
2023/05/11 10:54:58;;;;;;;7.03;2.47;;;;;;;21.77;43.31;99789.31;5158294;27;20138;-55
2023/05/11 10:57:36;;;;;;;4.70;2.75;;;;;;;22.41;42.24;99790.09;5157961;27;20413;-62
2023/05/11 11:00:18;;;;;;;3.70;2.80;;;;;;;21.54;42.39;99797.69;5157663;27;20055;-58
2023/05/11 11:02:45;;;;;;;7.78;2.05;;;;;;;22.15;42.00;99788.22;5156914;27;20141;-59
2023/05/11 11:05:15;;;;;;;10.23;2.50;;;;;;;21.84;43.46;99788.38;5157746;27;20051;-58
2023/05/11 11:07:56;;;;;;;7.22;2.72;;;;;;;21.60;43.53;99788.41;5158025;27;20051;-63
2023/05/11 11:10:30;;;;;;;10.48;3.08;;;;;;;20.81;43.71;99780.44;5157519;27;20062;-58
2023/05/11 11:13:04;;;;;;;13.15;3.15;;;;;;;20.83;43.50;99785.59;5157555;27;20050;-55
2023/05/11 11:16:17;;;;;;;10.75;2.90;;;;;;;20.39;44.28;99771.41;5157923;27;20057;-58
2023/05/11 11:18:44;;;;;;;8.45;2.33;;;;;;;20.36;44.48;99774.22;5110000;27;20051;-61
2023/05/11 11:21:14;;;;;;;6.75;2.65;;;;;;;20.59;44.67;99773.56;5157602;27;20195;-61
2023/05/11 11:23:41;;;;;;;2.80;2.53;;;;;;;20.55;44.75;99772.81;5157447;27;20372;-62
2023/05/11 11:26:09;;;;;;;4.82;2.20;;;;;;;20.73;45.98;99772.63;5157900;27;20207;-61
2023/05/11 11:29:10;;;;;;;6.53;2.30;;;;;;;20.54;44.39;99774.03;5157423;27;20084;-61
2023/05/11 11:31:37;;;;;;;7.93;3.10;;;;;;;20.47;44.07;99769.31;5157193;27;20050;-62
2023/05/11 11:34:32;;;;;;;4.10;2.30;;;;;;;20.19;44.31;99776.00;5157488;27;20062;-60